createdAt,value
2022-08-08T00:00:53.600Z,86.91
2022-08-08T00:01:08.461Z,86.91
2022-08-08T00:02:03.241Z,87.02
2022-08-08T00:02:35.267Z,87.37
2022-08-08T00:03:34.603Z,87.67
2022-08-08T00:04:34.589Z,87.87
2022-08-08T00:05:43.527Z,88.18
2022-08-08T00:06:35.253Z,88.38
2022-08-08T00:07:34.507Z,88.18
2022-08-08T00:08:34.506Z,88.28
2022-08-08T00:09:34.481Z,88.28
2022-08-08T00:10:34.476Z,88.58
2022-08-08T00:11:46.499Z,88.28
2022-08-08T00:12:34.496Z,88.48
2022-08-08T00:14:17.572Z,88.58
2022-08-08T00:15:05.016Z,88.68
2022-08-08T00:15:56.933Z,88.38
2022-08-08T00:16:34.435Z,88.48
2022-08-08T00:17:48.352Z,88.38
2022-08-08T00:18:34.397Z,88.38
2022-08-08T00:19:34.374Z,88.48
2022-08-08T00:20:36.916Z,88.89
2022-08-08T00:21:39.730Z,88.82
2022-08-08T00:22:34.322Z,88.73
2022-08-08T00:23:43.239Z,88.82
2022-08-08T00:24:34.290Z,88.73
2022-08-08T00:25:45.063Z,88.62
2022-08-08T00:26:34.265Z,88.62
2022-08-08T00:27:35.775Z,88.42
2022-08-08T00:28:36.799Z,88.62
2022-08-08T00:29:44.196Z,88.62
2022-08-08T00:30:34.209Z,88.21
2022-08-08T00:32:07.821Z,88.32
2022-08-08T00:32:36.314Z,88.42
2022-08-08T00:34:17.187Z,88.52
2022-08-08T00:34:35.023Z,88.42
2022-08-08T00:35:34.585Z,88.42
2022-08-08T00:36:35.273Z,88.32
2022-08-08T00:37:47.765Z,89.13
2022-08-08T00:38:44.157Z,88.82
2022-08-08T00:41:06.863Z,89.03
2022-08-08T00:41:14.648Z,89.23
2022-08-08T00:41:54.762Z,89.54
2022-08-08T00:42:36.750Z,89.54
2022-08-08T00:43:40.939Z,89.84
2022-08-08T00:44:34.023Z,89.84
2022-08-08T00:45:34.027Z,89.84
2022-08-08T00:46:56.889Z,89.84
2022-08-08T00:47:36.907Z,89.74
2022-08-08T00:48:34.184Z,89.98
2022-08-08T00:49:33.974Z,89.78
2022-08-08T00:50:33.961Z,90.09
2022-08-08T00:51:39.056Z,89.88
2022-08-08T00:52:40.261Z,89.68
2022-08-08T00:53:43.518Z,89.48
2022-08-08T00:54:34.279Z,89.58
2022-08-08T00:55:52.677Z,89.58
2022-08-08T00:56:33.906Z,89.54
2022-08-08T00:57:34.164Z,89.54
2022-08-08T00:58:34.638Z,89.54
2022-08-08T00:59:44.380Z,89.23
2022-08-08T01:00:37.439Z,89.13
2022-08-08T01:01:38.121Z,89.33
2022-08-08T01:03:53.938Z,89.54
2022-08-08T01:04:07.942Z,89.13
2022-08-08T01:04:33.756Z,89.13
2022-08-08T01:05:58.695Z,88.93
2022-08-08T01:06:33.734Z,89.03
2022-08-08T01:07:34.548Z,89.13
2022-08-08T01:08:33.708Z,88.93
2022-08-08T01:09:35.417Z,89.13
2022-08-08T01:10:33.746Z,89.13
2022-08-08T01:11:33.648Z,89.03
2022-08-08T01:12:34.011Z,89.23
2022-08-08T01:13:43.767Z,88.93
2022-08-08T01:14:54.892Z,88.93
2022-08-08T01:15:43.567Z,89.03
2022-08-08T01:16:33.588Z,89.23
2022-08-08T01:17:52.257Z,89.64
2022-08-08T01:18:53.565Z,89.64
2022-08-08T01:20:01.228Z,89.43
2022-08-08T01:20:33.571Z,89.33
2022-08-08T01:21:35.059Z,89.54
2022-08-08T01:22:35.332Z,89.94
2022-08-08T01:23:55.681Z,90.39
2022-08-08T01:24:33.521Z,90.25
2022-08-08T01:25:40.173Z,90.05
2022-08-08T01:26:33.522Z,90.05
2022-08-08T01:27:44.201Z,90.05
2022-08-08T01:28:33.428Z,89.84
2022-08-08T01:29:35.329Z,89.94
2022-08-08T01:30:33.463Z,90.35
2022-08-08T01:32:06.304Z,90.59
2022-08-08T01:32:33.748Z,90.35
2022-08-08T01:33:43.085Z,90.05
2022-08-08T01:34:34.055Z,90.14
2022-08-08T01:35:38.456Z,90.45
2022-08-08T01:36:33.331Z,90.45
2022-08-08T01:37:56.527Z,90.05
2022-08-08T01:38:33.303Z,90.25
2022-08-08T01:39:34.945Z,90.14
2022-08-08T01:40:33.330Z,90.05
2022-08-08T01:41:34.281Z,90.14
2022-08-08T01:42:36.409Z,90.14
2022-08-08T01:43:34.756Z,90.25
2022-08-08T01:44:33.233Z,90.25
2022-08-08T01:45:33.201Z,90.66
2022-08-08T01:46:33.219Z,90.45
2022-08-08T01:48:03.686Z,90.14
2022-08-08T01:48:33.176Z,90.35
2022-08-08T01:49:37.865Z,90.14
2022-08-08T01:50:35.849Z,90.14
2022-08-08T01:52:04.229Z,89.84
2022-08-08T01:54:06.840Z,89.84
2022-08-08T01:56:27.524Z,90.14
2022-08-08T01:56:37.262Z,90.25
2022-08-08T01:56:46.771Z,90.05
2022-08-08T01:58:12.000Z,90.35
2022-08-08T01:58:47.200Z,90.75
2022-08-08T02:00:02.117Z,90.55
2022-08-08T02:00:42.516Z,90.45
2022-08-08T02:01:55.085Z,90.35
2022-08-08T02:02:43.042Z,90.35
2022-08-08T02:03:49.483Z,90.55
2022-08-08T02:04:43.011Z,90.14
2022-08-08T02:05:56.961Z,90.35
2022-08-08T02:06:43.611Z,90.05
2022-08-08T02:07:49.099Z,90.05
2022-08-08T02:08:45.574Z,90.05
2022-08-08T02:10:01.920Z,89.84
2022-08-08T02:10:45.013Z,89.94
2022-08-08T02:11:58.901Z,89.84
2022-08-08T02:12:42.286Z,90.05
2022-08-08T02:13:53.272Z,90.25
2022-08-08T02:14:50.119Z,90.14
2022-08-08T02:15:42.246Z,90.25
2022-08-08T02:16:42.732Z,90.25
2022-08-08T02:17:43.275Z,90.66
2022-08-08T02:18:42.213Z,90.35
2022-08-08T02:20:08.026Z,90.25
2022-08-08T02:21:01.246Z,90.14
2022-08-08T02:21:42.169Z,90.25
2022-08-08T02:22:46.002Z,90.55
2022-08-08T02:23:42.137Z,90.66
2022-08-08T02:24:42.129Z,90.45
2022-08-08T02:25:47.356Z,90.05
2022-08-08T02:26:42.099Z,90.25
2022-08-08T02:27:42.687Z,90.45
2022-08-08T02:28:42.065Z,90.86
2022-08-08T02:29:51.581Z,90.75
2022-08-08T02:30:50.034Z,90.55
2022-08-08T02:31:59.402Z,90.66
2022-08-08T02:32:42.015Z,90.86
2022-08-08T02:34:07.231Z,90.86
2022-08-08T02:35:07.766Z,90.86
2022-08-08T02:36:04.577Z,91.06
2022-08-08T02:36:41.952Z,91.06
2022-08-08T02:37:52.460Z,91.06
2022-08-08T02:38:41.931Z,90.75
2022-08-08T02:39:59.591Z,90.55
2022-08-08T02:40:42.125Z,90.55
2022-08-08T02:42:04.043Z,90.55
2022-08-08T02:42:42.388Z,90.35
2022-08-08T02:44:39.320Z,90.75
2022-08-08T02:44:57.891Z,90.66
2022-08-08T02:45:54.203Z,90.45
2022-08-08T02:46:41.831Z,90.66
2022-08-08T02:47:41.842Z,90.55
2022-08-08T02:48:42.847Z,90.55
2022-08-08T02:49:50.873Z,90.55
2022-08-08T02:50:41.782Z,90.55
2022-08-08T02:51:55.741Z,90.66
2022-08-08T02:52:41.750Z,90.61
2022-08-08T02:53:41.751Z,90.51
2022-08-08T02:54:41.725Z,90.41
2022-08-08T02:55:41.735Z,90.92
2022-08-08T02:56:41.713Z,90.92
2022-08-08T02:57:44.890Z,91.22
2022-08-08T02:58:41.711Z,91.02
2022-08-08T02:59:57.041Z,90.71
2022-08-08T03:00:47.048Z,90.61
2022-08-08T03:01:50.059Z,90.71
2022-08-08T03:02:41.619Z,90.61
2022-08-08T03:05:01.538Z,90.51
2022-08-08T03:05:11.830Z,90.41
2022-08-08T03:05:45.147Z,90.61
2022-08-08T03:06:41.556Z,90.61
2022-08-08T03:07:59.010Z,90.51
2022-08-08T03:08:41.526Z,90.71
2022-08-08T03:09:41.562Z,91.02
2022-08-08T03:10:44.772Z,90.51
2022-08-08T03:12:02.076Z,90.81
2022-08-08T03:13:01.489Z,90.92
2022-08-08T03:15:58.626Z,91.12
2022-08-08T03:16:51.340Z,91.22
2022-08-08T03:16:56.222Z,91.12
2022-08-08T03:18:04.583Z,90.81
2022-08-08T03:18:56.231Z,90.61
2022-08-08T03:19:56.206Z,90.61
2022-08-08T03:20:56.172Z,90.61
2022-08-08T03:21:59.645Z,90.61
2022-08-08T03:23:00.451Z,90.41
2022-08-08T03:24:01.863Z,90.96
2022-08-08T03:24:56.971Z,90.81
2022-08-08T03:25:56.093Z,90.86
2022-08-08T03:26:56.084Z,90.86
2022-08-08T03:27:56.335Z,90.75
2022-08-08T03:28:56.064Z,90.86
2022-08-08T03:29:56.963Z,91.06
2022-08-08T03:31:22.074Z,91.16
2022-08-08T03:32:06.307Z,91.06
2022-08-08T03:33:00.023Z,91.36
2022-08-08T03:34:00.308Z,91.16
2022-08-08T03:34:56.003Z,91.26
2022-08-08T03:35:55.967Z,91.26
2022-08-08T03:36:55.988Z,91.06
2022-08-08T03:38:54.880Z,90.96
2022-08-08T03:39:07.945Z,91.47
2022-08-08T03:40:00.537Z,91.16
2022-08-08T03:40:56.023Z,91.06
2022-08-08T03:42:26.895Z,91.06
2022-08-08T03:42:55.875Z,91.42
2022-08-08T03:43:55.860Z,91.32
2022-08-08T03:44:55.841Z,91.32
2022-08-08T03:46:06.015Z,91.22
2022-08-08T03:46:55.889Z,91.22
2022-08-08T03:47:55.808Z,91.42
2022-08-08T03:49:38.256Z,91.32
2022-08-08T03:50:03.748Z,91.42
2022-08-08T03:50:55.806Z,91.42
2022-08-08T03:51:55.755Z,91.63
2022-08-08T03:52:55.740Z,91.63
2022-08-08T03:53:55.747Z,91.22
2022-08-08T03:55:10.229Z,91.22
2022-08-08T03:56:04.282Z,91.22
2022-08-08T03:56:55.704Z,91.12
2022-08-08T03:58:33.653Z,91.02
2022-08-08T03:58:55.661Z,90.71
2022-08-08T04:00:02.663Z,90.81
2022-08-08T04:01:01.434Z,91.02
2022-08-08T04:02:33.416Z,91.02
2022-08-08T04:02:56.199Z,91.83
2022-08-08T04:03:58.724Z,92.84
2022-08-08T04:04:55.573Z,93.00
2022-08-08T04:05:55.589Z,93.10
2022-08-08T04:06:55.546Z,92.80
2022-08-08T04:07:55.554Z,92.14
2022-08-08T04:08:55.523Z,92.25
2022-08-08T04:10:00.523Z,92.25
2022-08-08T04:10:59.835Z,91.19
2022-08-08T04:11:58.779Z,90.89
2022-08-08T04:12:55.478Z,89.98
2022-08-08T04:14:04.137Z,90.38
2022-08-08T04:14:55.473Z,89.87
2022-08-08T04:16:04.020Z,88.35
2022-08-08T04:16:55.448Z,88.20
2022-08-08T04:17:59.159Z,88.49
2022-08-08T04:18:55.392Z,88.60
2022-08-08T04:19:55.409Z,88.80
2022-08-08T04:20:55.363Z,89.15
2022-08-08T04:21:55.377Z,89.45
2022-08-08T04:22:56.867Z,89.45
2022-08-08T04:24:05.388Z,89.45
2022-08-08T04:24:55.309Z,89.55
2022-08-08T04:25:55.294Z,89.65
2022-08-08T04:26:57.160Z,89.65
2022-08-08T04:28:02.068Z,90.16
2022-08-08T04:28:55.291Z,90.06
2022-08-08T04:30:17.175Z,90.06
2022-08-08T04:30:57.541Z,90.77
2022-08-08T04:31:59.144Z,90.92
2022-08-08T04:32:55.213Z,90.67
2022-08-08T04:33:55.191Z,91.22
2022-08-08T04:34:56.054Z,91.42
2022-08-08T04:35:56.170Z,90.92
2022-08-08T04:36:55.153Z,90.81
2022-08-08T04:37:55.134Z,91.02
2022-08-08T04:39:48.095Z,91.02
2022-08-08T04:40:12.516Z,91.32
2022-08-08T04:40:55.226Z,91.42
2022-08-08T04:41:55.082Z,91.42
2022-08-08T04:42:56.984Z,91.52
2022-08-08T04:43:57.236Z,91.73
2022-08-08T04:44:55.035Z,91.77
2022-08-08T04:45:55.052Z,91.87
2022-08-08T04:46:55.015Z,92.18
2022-08-08T04:47:55.001Z,92.58
2022-08-08T04:48:55.011Z,92.58
2022-08-08T04:50:00.556Z,92.89
2022-08-08T04:50:54.996Z,92.99
2022-08-08T04:51:57.553Z,92.89
2022-08-08T04:52:58.620Z,92.89
2022-08-08T04:54:39.034Z,92.68
2022-08-08T04:54:54.905Z,92.89
2022-08-08T04:55:56.114Z,92.89
2022-08-08T04:56:54.879Z,92.89
2022-08-08T04:57:54.865Z,93.09
2022-08-08T04:58:54.898Z,93.09
2022-08-08T04:59:54.847Z,92.99
2022-08-08T05:00:54.879Z,92.99
2022-08-08T05:01:59.561Z,93.09
2022-08-08T05:02:54.930Z,93.09
2022-08-08T05:04:11.359Z,93.09
2022-08-08T05:04:54.777Z,93.05
2022-08-08T05:05:54.810Z,93.05
2022-08-08T05:06:54.748Z,92.84
2022-08-08T05:07:56.631Z,93.05
2022-08-08T05:08:54.747Z,92.94
2022-08-08T05:09:54.707Z,92.84
2022-08-08T05:10:54.707Z,92.84
2022-08-08T05:11:57.050Z,92.54
2022-08-08T05:13:01.450Z,92.54
2022-08-08T05:13:58.024Z,92.24
2022-08-08T05:14:54.638Z,91.93
2022-08-08T05:16:53.075Z,91.83
2022-08-08T05:17:08.744Z,91.93
2022-08-08T05:17:54.812Z,92.03
2022-08-08T05:18:54.586Z,92.03
2022-08-08T05:20:09.993Z,92.03
2022-08-08T05:20:54.603Z,92.13
2022-08-08T05:22:00.017Z,92.13
2022-08-08T05:22:54.532Z,92.33
2022-08-08T05:24:04.146Z,92.54
2022-08-08T05:24:54.530Z,92.24
2022-08-08T05:26:00.095Z,92.54
2022-08-08T05:26:54.480Z,92.44
2022-08-08T05:27:54.855Z,92.33
2022-08-08T05:28:57.192Z,92.13
2022-08-08T05:29:54.878Z,91.99
2022-08-08T05:30:54.584Z,91.89
2022-08-08T05:32:04.075Z,91.89
2022-08-08T05:32:54.398Z,91.89
2022-08-08T05:33:54.737Z,91.68
2022-08-08T05:34:54.405Z,91.68
2022-08-08T05:35:54.465Z,91.78
2022-08-08T05:36:54.344Z,91.99
2022-08-08T05:37:54.744Z,91.89
2022-08-08T05:38:54.345Z,92.09
2022-08-08T05:39:54.383Z,91.89
2022-08-08T05:40:57.827Z,91.89
2022-08-08T05:41:55.447Z,91.99
2022-08-08T05:42:54.276Z,91.78
2022-08-08T05:44:03.720Z,91.89
2022-08-08T05:44:54.310Z,91.99
2022-08-08T05:45:55.071Z,91.78
2022-08-08T05:46:54.217Z,91.74
2022-08-08T05:48:00.445Z,91.74
2022-08-08T05:48:54.393Z,91.64
2022-08-08T05:49:56.209Z,91.34
2022-08-08T05:50:58.717Z,91.13
2022-08-08T05:51:54.223Z,91.13
2022-08-08T05:52:54.136Z,91.34
2022-08-08T05:54:26.890Z,91.03
2022-08-08T05:55:00.345Z,90.83
2022-08-08T05:56:07.724Z,90.89
2022-08-08T05:56:54.075Z,90.69
2022-08-08T05:58:05.716Z,90.48
2022-08-08T05:58:58.329Z,90.69
2022-08-08T06:00:22.365Z,90.38
2022-08-08T06:00:58.346Z,90.08
2022-08-08T06:01:57.309Z,90.08
2022-08-08T06:02:54.092Z,89.87
2022-08-08T06:03:54.031Z,89.77
2022-08-08T06:04:54.628Z,89.26
2022-08-08T06:05:53.957Z,89.47
2022-08-08T06:06:53.965Z,89.57
2022-08-08T06:08:02.757Z,89.57
2022-08-08T06:08:55.104Z,89.32
2022-08-08T06:10:01.029Z,89.32
2022-08-08T06:10:53.890Z,89.23
2022-08-08T06:11:53.882Z,88.62
2022-08-08T06:12:53.880Z,88.62
2022-08-08T06:13:54.202Z,88.82
2022-08-08T06:14:53.840Z,88.82
2022-08-08T06:15:54.559Z,89.12
2022-08-08T06:16:53.800Z,89.63
2022-08-08T06:18:20.764Z,89.63
2022-08-08T06:18:53.807Z,89.63
2022-08-08T06:19:53.808Z,89.43
2022-08-08T06:20:56.315Z,89.18
2022-08-08T06:21:57.262Z,89.08
2022-08-08T06:22:53.732Z,88.88
2022-08-08T06:24:03.507Z,88.48
2022-08-08T06:24:53.710Z,88.37
2022-08-08T06:26:43.712Z,88.27
2022-08-08T06:26:53.689Z,88.48
2022-08-08T06:27:53.661Z,88.27
2022-08-08T06:28:54.034Z,88.57
2022-08-08T06:30:01.079Z,88.78
2022-08-08T06:30:53.638Z,88.78
2022-08-08T06:32:10.298Z,88.07
2022-08-08T06:32:53.604Z,88.23
2022-08-08T06:34:27.038Z,87.62
2022-08-08T06:34:56.463Z,87.32
2022-08-08T06:36:08.418Z,86.00
2022-08-08T06:36:54.230Z,86.21
2022-08-08T06:37:55.723Z,86.31
2022-08-08T06:38:53.525Z,86.31
2022-08-08T06:39:55.722Z,85.19
2022-08-08T06:40:54.345Z,84.25
2022-08-08T06:41:53.490Z,84.34
2022-08-08T06:42:53.462Z,84.14
2022-08-08T06:43:57.267Z,83.84
2022-08-08T06:44:53.441Z,84.34
2022-08-08T06:45:53.451Z,84.45
2022-08-08T06:46:53.419Z,84.95
2022-08-08T06:48:01.572Z,84.75
2022-08-08T06:48:53.413Z,84.95
2022-08-08T06:49:55.685Z,83.94
2022-08-08T06:50:53.360Z,83.44
2022-08-08T06:51:57.920Z,83.54
2022-08-08T06:52:53.334Z,83.44
2022-08-08T06:53:56.433Z,83.60
2022-08-08T06:54:53.311Z,84.51
2022-08-08T06:56:02.038Z,84.51
2022-08-08T06:56:53.295Z,84.61
2022-08-08T06:57:56.402Z,84.41
2022-08-08T06:58:53.293Z,84.11
2022-08-08T07:00:12.125Z,83.90
2022-08-08T07:00:53.228Z,83.19
2022-08-08T07:02:26.962Z,82.49
2022-08-08T07:02:53.262Z,82.89
2022-08-08T07:04:40.100Z,84.11
2022-08-08T07:04:53.270Z,84.11
2022-08-08T07:05:53.156Z,84.11
2022-08-08T07:06:53.186Z,84.20
2022-08-08T07:07:53.129Z,83.56
2022-08-08T07:08:53.119Z,82.55
2022-08-08T07:09:59.647Z,82.45
2022-08-08T07:10:53.098Z,82.95
2022-08-08T07:11:53.079Z,83.15
2022-08-08T07:12:53.084Z,83.86
2022-08-08T07:13:59.976Z,83.96
2022-08-08T07:14:53.037Z,83.52
2022-08-08T07:16:07.053Z,83.52
2022-08-08T07:16:54.374Z,82.41
2022-08-08T07:18:01.840Z,82.71
2022-08-08T07:18:55.997Z,83.52
2022-08-08T07:19:52.992Z,82.21
2022-08-08T07:20:52.954Z,81.60
2022-08-08T07:21:53.026Z,81.30
2022-08-08T07:22:52.929Z,81.90
2022-08-08T07:24:01.100Z,81.70
2022-08-08T07:24:53.084Z,81.26
2022-08-08T07:25:54.656Z,81.67
2022-08-08T07:26:53.015Z,81.05
2022-08-08T07:28:02.186Z,81.26
2022-08-08T07:28:52.858Z,81.67
2022-08-08T07:30:01.894Z,81.16
2022-08-08T07:30:52.833Z,81.16
2022-08-08T07:31:52.830Z,81.56
2022-08-08T07:32:52.793Z,81.42
2022-08-08T07:33:53.669Z,79.81
2022-08-08T07:35:00.747Z,79.34
2022-08-08T07:35:54.487Z,79.54
2022-08-08T07:36:52.740Z,80.51
2022-08-08T07:38:04.663Z,80.82
2022-08-08T07:38:53.389Z,80.41
2022-08-08T07:39:57.896Z,80.62
2022-08-08T07:40:52.696Z,80.82
2022-08-08T07:41:58.625Z,81.12
2022-08-08T07:42:52.667Z,80.98
2022-08-08T07:43:54.300Z,81.59
2022-08-08T07:44:52.625Z,81.28
2022-08-08T07:46:17.470Z,81.08
2022-08-08T07:46:52.615Z,81.28
2022-08-08T07:47:52.601Z,80.94
2022-08-08T07:48:52.618Z,80.94
2022-08-08T07:49:52.616Z,80.04
2022-08-08T07:50:52.571Z,79.93
2022-08-08T07:51:53.622Z,79.03
2022-08-08T07:52:52.619Z,79.93
2022-08-08T07:54:03.042Z,80.04
2022-08-08T07:54:52.509Z,80.50
2022-08-08T07:55:52.502Z,80.30
2022-08-08T07:56:52.482Z,80.00
2022-08-08T07:57:52.466Z,80.00
2022-08-08T07:58:52.514Z,79.29
2022-08-08T07:59:52.439Z,78.69
2022-08-08T08:00:52.585Z,78.28
2022-08-08T08:02:37.034Z,77.68
2022-08-08T08:02:52.402Z,78.08
2022-08-08T08:03:52.370Z,78.96
2022-08-08T08:04:52.574Z,79.16
2022-08-08T08:05:53.312Z,78.25
2022-08-08T08:06:52.358Z,78.25
2022-08-08T08:07:52.906Z,78.05
2022-08-08T08:08:53.029Z,75.63
2022-08-08T08:09:52.300Z,75.33
2022-08-08T08:10:52.276Z,76.34
2022-08-08T08:11:52.753Z,76.43
2022-08-08T08:12:52.264Z,79.46
2022-08-08T08:14:08.567Z,77.70
2022-08-08T08:14:52.242Z,77.00
2022-08-08T08:15:52.210Z,77.50
2022-08-08T08:16:52.252Z,78.11
2022-08-08T08:17:55.776Z,75.90
2022-08-08T08:18:56.090Z,76.40
2022-08-08T08:19:55.789Z,76.97
2022-08-08T08:20:52.183Z,77.37
2022-08-08T08:21:58.302Z,76.76
2022-08-08T08:22:52.135Z,76.26
2022-08-08T08:23:52.103Z,76.26
2022-08-08T08:24:52.141Z,74.85
2022-08-08T08:25:58.273Z,76.16
2022-08-08T08:26:52.858Z,76.56
2022-08-08T08:27:52.053Z,76.36
2022-08-08T08:28:52.045Z,74.85
2022-08-08T08:29:53.273Z,75.46
2022-08-08T08:30:52.072Z,75.96
2022-08-08T08:31:57.295Z,76.26
2022-08-08T08:32:52.223Z,76.06
2022-08-08T08:33:51.977Z,76.73
2022-08-08T08:34:51.992Z,76.03
2022-08-08T08:36:19.271Z,75.12
2022-08-08T08:36:54.767Z,75.12
2022-08-08T08:38:13.590Z,76.12
2022-08-08T08:38:51.919Z,74.62
2022-08-08T08:40:02.026Z,75.02
2022-08-08T08:40:51.926Z,75.22
2022-08-08T08:41:51.868Z,75.62
2022-08-08T08:42:51.863Z,75.52
2022-08-08T08:43:52.135Z,75.18
2022-08-08T08:44:51.867Z,75.38
2022-08-08T08:45:57.426Z,74.88
2022-08-08T08:46:58.892Z,74.68
2022-08-08T08:47:53.098Z,74.28
2022-08-08T08:48:51.802Z,73.64
2022-08-08T08:49:51.773Z,74.55
2022-08-08T08:50:52.119Z,73.44
2022-08-08T08:51:52.032Z,73.64
2022-08-08T08:53:00.042Z,74.24
2022-08-08T08:53:56.658Z,74.55
2022-08-08T08:54:55.776Z,74.24
2022-08-08T08:55:52.989Z,74.04
2022-08-08T08:56:51.670Z,75.35
2022-08-08T08:57:51.676Z,75.85
2022-08-08T08:58:51.651Z,74.55
2022-08-08T09:00:00.140Z,74.11
2022-08-08T09:01:08.429Z,74.01
2022-08-08T09:01:51.704Z,74.51
2022-08-08T09:02:51.598Z,73.41
2022-08-08T09:03:51.767Z,72.27
2022-08-08T09:04:52.574Z,73.17
2022-08-08T09:05:54.177Z,72.87
2022-08-08T09:06:51.677Z,74.88
2022-08-08T09:07:52.356Z,73.24
2022-08-08T09:08:52.167Z,74.34
2022-08-08T09:09:57.218Z,74.01
2022-08-08T09:10:51.500Z,72.09
2022-08-08T09:12:02.005Z,73.00
2022-08-08T09:12:51.491Z,74.97
2022-08-08T09:13:51.446Z,74.67
2022-08-08T09:14:51.520Z,74.23
2022-08-08T09:15:51.436Z,70.73
2022-08-08T09:16:51.443Z,71.93
2022-08-08T09:17:52.336Z,73.43
2022-08-08T09:18:51.383Z,73.30
2022-08-08T09:21:59.246Z,72.30
2022-08-08T09:22:10.246Z,72.60
2022-08-08T09:22:19.631Z,72.96
2022-08-08T09:23:17.340Z,71.46
2022-08-08T09:24:15.174Z,72.26
2022-08-08T09:25:15.349Z,71.12
2022-08-08T09:26:15.135Z,71.53
2022-08-08T09:27:20.234Z,70.32
2022-08-08T09:28:37.452Z,70.62
2022-08-08T09:29:22.625Z,70.23
2022-08-08T09:30:17.196Z,70.89
2022-08-08T09:31:15.084Z,69.59
2022-08-08T09:32:15.057Z,69.79
2022-08-08T09:34:15.728Z,69.99
2022-08-08T09:34:37.810Z,70.49
2022-08-08T09:35:15.985Z,70.79
2022-08-08T09:36:15.004Z,70.59
2022-08-08T09:37:37.406Z,70.19
2022-08-08T09:38:18.026Z,69.79
2022-08-08T09:39:19.066Z,69.59
2022-08-08T09:40:15.100Z,69.29
2022-08-08T09:41:14.951Z,69.09
2022-08-08T09:42:22.297Z,69.19
2022-08-08T09:43:16.822Z,70.19
2022-08-08T09:44:19.134Z,71.09
2022-08-08T09:45:15.516Z,69.36
2022-08-08T09:46:16.799Z,69.06
2022-08-08T09:47:27.005Z,69.26
2022-08-08T09:48:16.264Z,70.06
2022-08-08T09:49:41.048Z,70.03
2022-08-08T09:50:15.016Z,69.02
2022-08-08T09:51:14.809Z,68.82
2022-08-08T09:52:16.321Z,69.79
2022-08-08T09:53:24.704Z,67.40
2022-08-08T09:54:19.879Z,66.30
2022-08-08T09:55:17.587Z,67.26
2022-08-08T09:56:24.774Z,65.97
2022-08-08T09:57:16.487Z,66.56
2022-08-08T09:58:20.238Z,67.93
2022-08-08T09:59:50.544Z,68.43
2022-08-08T10:00:36.003Z,67.50
2022-08-08T10:01:58.133Z,66.40
2022-08-08T10:02:14.887Z,66.97
2022-08-08T10:03:14.681Z,66.87
2022-08-08T10:04:14.638Z,65.05
2022-08-08T10:05:15.660Z,65.05
2022-08-08T10:06:14.613Z,66.14
2022-08-08T10:07:15.830Z,65.31
2022-08-08T10:08:14.587Z,64.01
2022-08-08T10:09:14.617Z,64.22
2022-08-08T10:10:14.557Z,62.72
2022-08-08T10:12:25.893Z,64.78
2022-08-08T10:12:37.771Z,63.39
2022-08-08T10:13:15.097Z,63.29
2022-08-08T10:14:27.562Z,63.26
2022-08-08T10:15:17.297Z,60.27
2022-08-08T10:16:14.480Z,60.77
2022-08-08T10:18:06.024Z,61.77
2022-08-08T10:18:22.286Z,58.78
2022-08-08T10:19:14.438Z,58.98
2022-08-08T10:20:16.879Z,59.68
2022-08-08T10:21:25.206Z,59.38
2022-08-08T10:22:14.423Z,60.57
2022-08-08T10:23:14.382Z,61.27
2022-08-08T10:24:28.518Z,60.68
2022-08-08T10:25:15.498Z,60.57
2022-08-08T10:26:25.833Z,60.77
2022-08-08T10:27:14.421Z,59.98
2022-08-08T10:28:15.075Z,60.74
2022-08-08T10:29:20.846Z,61.14
2022-08-08T10:30:16.289Z,60.44
2022-08-08T10:31:14.318Z,59.85
2022-08-08T10:32:14.272Z,58.06
2022-08-08T10:33:14.269Z,58.16
2022-08-08T10:34:18.934Z,58.56
2022-08-08T10:36:06.232Z,57.36
2022-08-08T10:36:24.060Z,58.26
2022-08-08T10:37:14.200Z,59.72
2022-08-08T10:38:14.227Z,57.73
2022-08-08T10:39:14.232Z,58.03
2022-08-08T10:40:16.301Z,58.10
2022-08-08T10:41:14.147Z,58.20
2022-08-08T10:42:16.226Z,56.59
2022-08-08T10:43:14.271Z,58.27
2022-08-08T10:44:14.109Z,57.65
2022-08-08T10:45:16.065Z,58.12
2022-08-08T10:46:29.671Z,55.34
2022-08-08T10:47:14.076Z,54.92
2022-08-08T10:48:14.082Z,56.11
2022-08-08T10:50:00.202Z,54.72
2022-08-08T10:50:15.511Z,53.80
2022-08-08T10:51:14.117Z,52.41
2022-08-08T10:52:14.001Z,52.91
2022-08-08T10:53:13.998Z,54.30
2022-08-08T10:54:13.973Z,54.00
2022-08-08T10:55:13.974Z,55.98
2022-08-08T10:56:27.920Z,54.07
2022-08-08T10:57:13.940Z,52.59
2022-08-08T10:58:13.936Z,51.70
2022-08-08T10:59:14.971Z,51.60
2022-08-08T11:00:13.893Z,51.50
2022-08-08T11:01:14.013Z,50.81
2022-08-08T11:02:13.952Z,51.40
2022-08-08T11:03:15.557Z,53.18
2022-08-08T11:05:40.909Z,50.98
2022-08-08T11:05:46.300Z,50.18
2022-08-08T11:06:47.435Z,51.28
2022-08-08T11:08:31.622Z,50.29
2022-08-08T11:08:53.093Z,50.06
2022-08-08T11:09:46.276Z,49.66
2022-08-08T11:10:46.249Z,49.57
2022-08-08T11:12:05.099Z,49.07
2022-08-08T11:12:46.874Z,48.75
2022-08-08T11:13:51.979Z,48.65
2022-08-08T11:14:46.220Z,50.12
2022-08-08T11:15:52.332Z,49.42
2022-08-08T11:16:46.452Z,49.13
2022-08-08T11:18:00.534Z,46.73
2022-08-08T11:18:46.139Z,46.36
2022-08-08T11:19:46.546Z,46.66
2022-08-08T11:20:52.345Z,47.54
2022-08-08T11:21:55.204Z,47.44
2022-08-08T11:22:46.117Z,46.75
2022-08-08T11:23:46.082Z,47.13
2022-08-08T11:24:46.096Z,46.85
2022-08-08T11:25:56.874Z,46.95
2022-08-08T11:26:56.352Z,47.44
2022-08-08T11:27:46.744Z,46.48
2022-08-08T11:28:46.031Z,47.17
2022-08-08T11:29:58.128Z,46.58
2022-08-08T11:30:51.836Z,47.00
2022-08-08T11:31:48.362Z,47.31
2022-08-08T11:32:47.452Z,47.91
2022-08-08T11:33:53.278Z,47.81
2022-08-08T11:35:07.877Z,48.80
2022-08-08T11:35:45.935Z,48.18
2022-08-08T11:36:45.897Z,48.08
2022-08-08T11:38:43.485Z,47.56
2022-08-08T11:38:59.065Z,48.26
2022-08-08T11:39:57.312Z,46.85
2022-08-08T11:40:49.814Z,45.96
2022-08-08T11:41:45.841Z,45.86
2022-08-08T11:42:45.819Z,45.76
2022-08-08T11:43:45.799Z,46.66
2022-08-08T11:44:45.801Z,46.95
2022-08-08T11:46:09.202Z,47.22
2022-08-08T11:46:45.778Z,47.52
2022-08-08T11:48:04.644Z,46.01
2022-08-08T11:48:47.335Z,44.85
2022-08-08T11:49:45.722Z,45.05
2022-08-08T11:50:45.716Z,45.07
2022-08-08T11:51:50.087Z,45.49
2022-08-08T11:52:48.134Z,46.08
2022-08-08T11:53:55.049Z,45.81
2022-08-08T11:54:46.605Z,46.23
2022-08-08T11:55:45.657Z,47.22
2022-08-08T11:56:45.669Z,48.23
2022-08-08T11:57:45.636Z,47.34
2022-08-08T11:58:45.641Z,48.33
2022-08-08T12:00:00.257Z,48.23
2022-08-08T12:00:45.591Z,48.25
2022-08-08T12:01:45.601Z,47.75
2022-08-08T12:02:45.905Z,48.15
2022-08-08T12:03:45.666Z,47.88
2022-08-08T12:04:45.531Z,48.57
2022-08-08T12:05:45.525Z,48.97
2022-08-08T12:06:45.531Z,49.07
2022-08-08T12:07:45.503Z,48.97
2022-08-08T12:08:45.477Z,48.38
2022-08-08T12:09:59.512Z,48.85
2022-08-08T12:10:47.656Z,49.74
2022-08-08T12:11:45.832Z,49.94
2022-08-08T12:12:45.767Z,48.92
2022-08-08T12:14:03.530Z,48.33
2022-08-08T12:14:45.409Z,48.23
2022-08-08T12:15:47.174Z,47.46
2022-08-08T12:16:47.487Z,48.45
2022-08-08T12:17:50.903Z,48.63
2022-08-08T12:18:45.380Z,48.82
2022-08-08T12:19:51.639Z,48.30
2022-08-08T12:20:45.332Z,49.19
2022-08-08T12:21:59.383Z,48.90
2022-08-08T12:22:45.819Z,48.01
2022-08-08T12:23:59.455Z,47.71
2022-08-08T12:24:51.367Z,46.42
2022-08-08T12:25:52.640Z,48.01
2022-08-08T12:26:45.253Z,49.27
2022-08-08T12:27:47.909Z,47.99
2022-08-08T12:28:45.260Z,48.65
2022-08-08T12:29:45.581Z,46.58
2022-08-08T12:30:47.918Z,46.78
2022-08-08T12:31:53.662Z,45.76
2022-08-08T12:32:45.189Z,46.85
2022-08-08T12:34:02.733Z,46.63
2022-08-08T12:34:45.178Z,45.45
2022-08-08T12:35:52.871Z,45.32
2022-08-08T12:36:46.270Z,45.42
2022-08-08T12:37:47.872Z,45.42
2022-08-08T12:38:45.146Z,45.30
2022-08-08T12:40:01.881Z,43.92
2022-08-08T12:40:56.796Z,46.39
2022-08-08T12:41:57.377Z,46.86
2022-08-08T12:42:47.351Z,44.89
2022-08-08T12:43:59.450Z,45.57
2022-08-08T12:44:48.249Z,45.97
2022-08-08T12:45:57.753Z,43.90
2022-08-08T12:46:44.988Z,44.47
2022-08-08T12:48:04.810Z,43.98
2022-08-08T12:48:54.930Z,44.67
2022-08-08T12:49:45.496Z,44.47
2022-08-08T12:50:46.852Z,45.26
2022-08-08T12:51:50.061Z,44.67
2022-08-08T12:52:44.935Z,43.98
2022-08-08T12:53:44.919Z,45.36
2022-08-08T12:54:45.955Z,45.43